Time;durP1;ratioP1;P1;durP2;ratioP2;P2;SDS_P1;SDS_P2;PMS_P1;PMS_P2;Temp;Humidity;BMP_temperature;BMP_pressure;BME280_temperature;BME280_humidity;BME280_pressure;Samples;Min_cycle;Max_cycle;Signal;HPM_P1;HPM_P2
2023/04/24 00:01:50;;;;;;;11.52;7.50;;;;;;;;;;5048894;28;20143;-73
2023/04/24 00:04:16;;;;;;;13.45;8.15;;;;;;;;;;5053998;28;20021;-73
2023/04/24 00:06:43;;;;;;;11.20;7.65;;;;;;;;;;5054365;28;20037;-72
2023/04/24 00:09:12;;;;;;;10.40;7.18;;;;;;;;;;5054268;28;20024;-72
2023/04/24 00:11:38;;;;;;;11.30;7.97;;;;;;;;;;5054064;28;20367;-72
2023/04/24 00:14:04;;;;;;;10.38;8.18;;;;;;;;;;5053797;28;20044;-72
2023/04/24 00:16:30;;;;;;;12.50;8.68;;;;;;;;;;5054149;28;20029;-72
2023/04/24 00:18:56;;;;;;;13.75;8.35;;;;;;;;;;5054237;28;20031;-71
2023/04/24 00:21:25;;;;;;;14.00;8.10;;;;;;;;;;5053585;28;20100;-72
2023/04/24 00:23:51;;;;;;;10.88;8.07;;;;;;;;;;5053507;28;20017;-72
2023/04/24 00:26:17;;;;;;;14.40;8.70;;;;;;;;;;5054154;28;20028;-72
2023/04/24 00:28:43;;;;;;;12.98;8.55;;;;;;;;;;5053579;28;20037;-72
2023/04/24 00:31:09;;;;;;;15.32;8.93;;;;;;;;;;5053962;28;20025;-73
2023/04/24 00:33:35;;;;;;;13.05;8.35;;;;;;;;;;5053554;28;20025;-72
2023/04/24 00:36:01;;;;;;;13.45;8.35;;;;;;;;;;5053698;28;20025;-72
2023/04/24 00:38:27;;;;;;;12.93;8.40;;;;;;;;;;5053442;28;20029;-72
2023/04/24 00:40:54;;;;;;;11.48;8.07;;;;;;;;;;5053440;28;20108;-72
2023/04/24 00:43:20;;;;;;;10.45;8.60;;;;;;;;;;5053235;28;20025;-72
2023/04/24 00:45:46;;;;;;;14.18;8.55;;;;;;;;;;5053619;28;20029;-72
2023/04/24 00:48:12;;;;;;;14.65;8.93;;;;;;;;;;5053323;28;20036;-71
2023/04/24 00:50:39;;;;;;;17.35;9.43;;;;;;;;;;5053283;28;20036;-73
2023/04/24 00:53:05;;;;;;;12.00;8.57;;;;;;;;;;5052967;28;20052;-72
2023/04/24 00:55:31;;;;;;;16.50;8.70;;;;;;;;;;5053155;28;20501;-71
2023/04/24 00:57:57;;;;;;;14.85;8.88;;;;;;;;;;5053070;28;20487;-73
2023/04/24 01:00:23;;;;;;;12.32;8.57;;;;;;;;;;5053236;28;20467;-72
2023/04/24 01:02:51;;;;;;;13.52;8.73;;;;;;;;;;5052857;28;20517;-72
2023/04/24 01:05:18;;;;;;;11.25;8.48;;;;;;;;;;5053076;28;20040;-72
2023/04/24 01:07:47;;;;;;;14.25;8.45;;;;;;;;;;5052889;28;20032;-71
2023/04/24 01:10:14;;;;;;;14.63;7.90;;;;;;;;;;5052930;28;20025;-72
2023/04/24 01:12:40;;;;;;;11.98;7.72;;;;;;;;;;5052860;28;20210;-72
2023/04/24 01:15:06;;;;;;;12.45;7.63;;;;;;;;;;5052867;28;20024;-73
2023/04/24 01:17:33;;;;;;;11.07;7.90;;;;;;;;;;5052818;28;20085;-72
2023/04/24 01:19:59;;;;;;;12.57;8.38;;;;;;;;;;5052679;28;20057;-73
2023/04/24 01:22:25;;;;;;;9.50;7.22;;;;;;;;;;5052504;28;20552;-72
2023/04/24 01:24:52;;;;;;;14.00;8.02;;;;;;;;;;5052664;28;20146;-72
2023/04/24 01:27:18;;;;;;;13.15;7.70;;;;;;;;;;5052975;28;20371;-72
2023/04/24 01:29:44;;;;;;;10.95;6.95;;;;;;;;;;5052563;28;20441;-72
2023/04/24 01:32:10;;;;;;;10.25;7.35;;;;;;;;;;5052305;28;20025;-72
2023/04/24 01:34:37;;;;;;;10.05;6.75;;;;;;;;;;5052443;28;20028;-71
2023/04/24 01:37:04;;;;;;;8.93;6.70;;;;;;;;;;5052437;28;20105;-72
2023/04/24 01:39:31;;;;;;;9.75;6.93;;;;;;;;;;5052334;28;20099;-72
2023/04/24 01:41:57;;;;;;;9.68;7.05;;;;;;;;;;5052366;28;20021;-72
2023/04/24 01:44:23;;;;;;;8.63;6.70;;;;;;;;;;5051440;28;20095;-72
2023/04/24 01:46:49;;;;;;;8.27;6.60;;;;;;;;;;5052339;28;20519;-71
2023/04/24 01:49:15;;;;;;;8.73;6.20;;;;;;;;;;5052358;28;20274;-72
2023/04/24 01:51:41;;;;;;;9.02;6.32;;;;;;;;;;5050137;28;20021;-71
2023/04/24 01:54:07;;;;;;;8.73;6.13;;;;;;;;;;5053039;28;20428;-71
2023/04/24 01:56:35;;;;;;;8.38;5.55;;;;;;;;;;5068929;28;20462;-71
2023/04/24 01:59:03;;;;;;;12.20;4.50;;;;;;;;;;5072944;28;20382;-71
2023/04/24 02:01:33;;;;;;;9.80;4.93;;;;;;;;;;5072074;28;20025;-72
2023/04/24 02:03:59;;;;;;;7.32;4.43;;;;;;;;;;5071687;28;20044;-72
2023/04/24 02:06:25;;;;;;;10.38;4.20;;;;;;;;;;5071551;28;20478;-72
2023/04/24 02:08:51;;;;;;;7.82;4.00;;;;;;;;;;5071656;28;20035;-70
2023/04/24 02:11:17;;;;;;;7.97;3.45;;;;;;;;;;5071684;28;20056;-72
2023/04/24 02:13:43;;;;;;;6.95;3.42;;;;;;;;;;5073378;28;20028;-74
2023/04/24 02:16:09;;;;;;;5.32;3.00;;;;;;;;;;5071486;28;20485;-72
2023/04/24 02:18:35;;;;;;;6.65;3.20;;;;;;;;;;5071995;28;20452;-71
2023/04/24 02:21:01;;;;;;;6.70;3.08;;;;;;;;;;5071835;28;20440;-72
2023/04/24 02:23:27;;;;;;;4.45;2.80;;;;;;;;;;5071487;28;20023;-72
2023/04/24 02:25:53;;;;;;;3.20;2.63;;;;;;;;;;5071778;28;20390;-72
2023/04/24 02:28:19;;;;;;;4.95;2.88;;;;;;;;;;5071700;28;20025;-72
2023/04/24 02:30:45;;;;;;;4.32;2.70;;;;;;;;;;5071967;28;20033;-71
2023/04/24 02:33:12;;;;;;;4.82;2.28;;;;;;;;;;5072669;28;20027;-72
2023/04/24 02:35:38;;;;;;;2.85;2.47;;;;;;;;;;5071146;28;20029;-71
2023/04/24 02:38:04;;;;;;;5.78;2.63;;;;;;;;;;5071691;28;20021;-72
2023/04/24 02:40:30;;;;;;;7.93;3.08;;;;;;;;;;5071243;28;20024;-71
2023/04/24 02:42:56;;;;;;;2.45;2.15;;;;;;;;;;5071306;28;20390;-73
2023/04/24 02:45:22;;;;;;;4.97;2.00;;;;;;;;;;5072419;28;20020;-71
2023/04/24 02:47:48;;;;;;;5.28;2.65;;;;;;;;;;5075521;28;20025;-71
2023/04/24 02:50:14;;;;;;;4.05;2.10;;;;;;;;;;5075143;28;20031;-71
2023/04/24 02:52:40;;;;;;;3.42;2.20;;;;;;;;;;5075212;28;20025;-71
2023/04/24 02:55:07;;;;;;;3.20;2.35;;;;;;;;;;5075237;28;20028;-71
2023/04/24 02:57:33;;;;;;;3.10;2.08;;;;;;;;;;5075330;28;20047;-71
2023/04/24 03:00:00;;;;;;;3.53;2.28;;;;;;;;;;5075148;28;20054;-72
2023/04/24 03:02:26;;;;;;;3.85;2.50;;;;;;;;;;5074977;28;20103;-71
2023/04/24 03:04:52;;;;;;;5.18;2.80;;;;;;;;;;5075365;28;20103;-72
2023/04/24 03:07:20;;;;;;;4.15;2.47;;;;;;;;;;5075043;28;20039;-71
2023/04/24 03:09:47;;;;;;;6.90;2.40;;;;;;;;;;5075128;28;20024;-71
2023/04/24 03:12:13;;;;;;;5.30;2.60;;;;;;;;;;5074660;28;20058;-71
2023/04/24 03:14:39;;;;;;;4.97;2.47;;;;;;;;;;5075030;28;20104;-72
2023/04/24 03:17:05;;;;;;;6.05;2.85;;;;;;;;;;5075502;28;20016;-72
2023/04/24 03:19:31;;;;;;;5.28;3.03;;;;;;;;;;5075161;28;20115;-70
2023/04/24 03:21:57;;;;;;;5.90;2.60;;;;;;;;;;5074733;28;20135;-71
2023/04/24 03:24:23;;;;;;;5.65;2.75;;;;;;;;;;5074957;28;20102;-70
2023/04/24 03:26:49;;;;;;;6.35;2.50;;;;;;;;;;5075330;28;20070;-71
2023/04/24 03:29:15;;;;;;;3.92;2.42;;;;;;;;;;5074984;28;20108;-71
2023/04/24 03:31:41;;;;;;;3.78;2.35;;;;;;;;;;5074821;28;20036;-71
2023/04/24 03:34:07;;;;;;;5.82;2.70;;;;;;;;;;5075038;28;20470;-71
2023/04/24 03:36:33;;;;;;;4.68;2.50;;;;;;;;;;5074966;28;20025;-71
2023/04/24 03:38:59;;;;;;;10.82;2.63;;;;;;;;;;5074577;28;20032;-71
2023/04/24 03:41:25;;;;;;;5.45;2.60;;;;;;;;;;5074630;28;20091;-71
2023/04/24 03:43:51;;;;;;;3.70;2.55;;;;;;;;;;5074436;28;20100;-70
2023/04/24 03:46:17;;;;;;;6.68;3.72;;;;;;;;;;5074486;28;20110;-72
2023/04/24 03:48:43;;;;;;;4.45;2.72;;;;;;;;;;5074461;28;20052;-78
2023/04/24 03:51:09;;;;;;;3.70;2.50;;;;;;;;;;5074923;28;20037;-72
2023/04/24 03:53:35;;;;;;;3.83;2.58;;;;;;;;;;5074631;28;20481;-71
2023/04/24 03:56:01;;;;;;;3.45;2.47;;;;;;;;;;5073879;28;20035;-73
2023/04/24 03:58:27;;;;;;;4.43;2.75;;;;;;;;;;5073696;28;20586;-74
2023/04/24 04:00:53;;;;;;;5.28;2.50;;;;;;;;;;5074420;28;20017;-72
2023/04/24 04:03:19;;;;;;;4.20;2.30;;;;;;;;;;5073924;28;20020;-72
2023/04/24 04:05:45;;;;;;;4.05;2.75;;;;;;;;;;5074512;28;20510;-72
2023/04/24 04:08:11;;;;;;;2.85;2.20;;;;;;;;;;5074126;28;20119;-72
2023/04/24 04:10:37;;;;;;;3.83;2.58;;;;;;;;;;5073787;28;20410;-73
2023/04/24 04:13:03;;;;;;;4.40;2.15;;;;;;;;;;5073758;28;20032;-72
2023/04/24 04:15:29;;;;;;;4.00;2.50;;;;;;;;;;5073959;28;20518;-72
2023/04/24 04:17:55;;;;;;;4.75;2.22;;;;;;;;;;5073851;28;20127;-72
2023/04/24 04:20:21;;;;;;;6.53;2.40;;;;;;;;;;5073941;28;20020;-72
2023/04/24 04:22:47;;;;;;;6.40;2.75;;;;;;;;;;5073615;28;20186;-71
2023/04/24 04:25:13;;;;;;;3.90;2.30;;;;;;;;;;5073568;28;20036;-79
2023/04/24 04:27:41;;;;;;;4.25;2.35;;;;;;;;;;5057463;28;20112;-76
2023/04/24 04:30:09;;;;;;;5.80;2.10;;;;;;;;;;5054207;28;20024;-76
2023/04/24 04:32:35;;;;;;;2.95;2.10;;;;;;;;;;5058256;28;20074;-76
2023/04/24 04:35:04;;;;;;;3.40;2.13;;;;;;;;;;5055513;28;20422;-76
2023/04/24 04:37:31;;;;;;;2.95;2.30;;;;;;;;;;5058799;28;20044;-78
2023/04/24 04:39:58;;;;;;;4.20;2.65;;;;;;;;;;5054210;28;20395;-76
2023/04/24 04:42:25;;;;;;;4.57;2.22;;;;;;;;;;5054364;28;20475;-75
2023/04/24 04:44:51;;;;;;;3.13;2.15;;;;;;;;;;5053210;28;20029;-73
2023/04/24 04:47:17;;;;;;;2.97;2.03;;;;;;;;;;5053307;28;20017;-75
2023/04/24 04:49:43;;;;;;;6.95;2.30;;;;;;;;;;5052879;28;20107;-75
2023/04/24 04:52:10;;;;;;;3.63;2.05;;;;;;;;;;5052862;28;20025;-75
2023/04/24 04:54:36;;;;;;;5.18;1.90;;;;;;;;;;5052886;28;20435;-74
2023/04/24 04:57:02;;;;;;;8.13;1.85;;;;;;;;;;5052900;28;20116;-75
2023/04/24 04:59:28;;;;;;;3.85;1.80;;;;;;;;;;5053152;28;20414;-72
2023/04/24 05:01:54;;;;;;;3.33;2.00;;;;;;;;;;5053007;28;20032;-71
2023/04/24 05:04:20;;;;;;;5.03;1.92;;;;;;;;;;5053209;28;20024;-73
2023/04/24 05:06:47;;;;;;;5.40;2.30;;;;;;;;;;5052549;28;20021;-73
2023/04/24 05:09:13;;;;;;;6.03;1.92;;;;;;;;;;5052528;28;20540;-73
2023/04/24 05:11:39;;;;;;;2.53;1.60;;;;;;;;;;5052804;28;20025;-70
2023/04/24 05:14:05;;;;;;;8.73;2.35;;;;;;;;;;5052936;28;20270;-72
2023/04/24 05:16:31;;;;;;;5.00;2.05;;;;;;;;;;5052710;28;20390;-72
2023/04/24 05:18:57;;;;;;;2.33;1.88;;;;;;;;;;5052779;28;20035;-73
2023/04/24 05:21:23;;;;;;;6.60;2.38;;;;;;;;;;5053169;28;20017;-70
2023/04/24 05:23:49;;;;;;;2.63;1.83;;;;;;;;;;5053184;28;20024;-72
2023/04/24 05:26:15;;;;;;;2.55;1.73;;;;;;;;;;5052653;28;20074;-73
2023/04/24 05:28:41;;;;;;;7.20;2.03;;;;;;;;;;5052339;28;20056;-73
2023/04/24 05:31:07;;;;;;;9.55;1.80;;;;;;;;;;5052344;28;20080;-73
2023/04/24 05:33:33;;;;;;;5.15;2.20;;;;;;;;;;5052595;28;20457;-72
2023/04/24 05:35:59;;;;;;;2.25;1.77;;;;;;;;;;5052647;28;20082;-72
2023/04/24 05:38:25;;;;;;;3.05;1.60;;;;;;;;;;5052570;28;20022;-71
2023/04/24 05:40:51;;;;;;;3.00;1.77;;;;;;;;;;5052965;28;20429;-73
2023/04/24 05:43:17;;;;;;;5.07;1.75;;;;;;;;;;5052268;28;20025;-72
2023/04/24 05:45:43;;;;;;;3.58;1.48;;;;;;;;;;5052905;28;20494;-71
2023/04/24 05:48:09;;;;;;;11.10;1.52;;;;;;;;;;5052635;28;20032;-74
2023/04/24 05:50:35;;;;;;;2.72;1.60;;;;;;;;;;5051915;28;20459;-72
2023/04/24 05:53:04;;;;;;;4.38;1.70;;;;;;;;;;5051849;28;20029;-71
2023/04/24 05:55:31;;;;;;;4.95;1.60;;;;;;;;;;5052069;28;20644;-72
2023/04/24 05:57:57;;;;;;;5.05;1.60;;;;;;;;;;5051853;28;20027;-71
2023/04/24 06:00:24;;;;;;;4.90;1.90;;;;;;;;;;5051845;28;20021;-71
2023/04/24 06:02:51;;;;;;;6.43;1.85;;;;;;;;;;5051493;28;20104;-70
2023/04/24 06:05:17;;;;;;;4.03;2.00;;;;;;;;;;5051631;28;20550;-72
2023/04/24 06:07:43;;;;;;;6.05;2.28;;;;;;;;;;5051754;28;20043;-71
2023/04/24 06:10:10;;;;;;;3.75;1.83;;;;;;;;;;5052295;28;20021;-72
2023/04/24 06:12:36;;;;;;;4.10;1.60;;;;;;;;;;5051329;28;20052;-72
2023/04/24 06:15:02;;;;;;;3.65;1.90;;;;;;;;;;5051948;28;20025;-70
2023/04/24 06:17:28;;;;;;;3.72;1.80;;;;;;;;;;5051773;28;20025;-73
2023/04/24 06:19:54;;;;;;;3.42;1.98;;;;;;;;;;5050694;28;20036;-72
2023/04/24 06:22:20;;;;;;;3.67;1.95;;;;;;;;;;5051391;28;20028;-74
2023/04/24 06:24:48;;;;;;;5.03;2.10;;;;;;;;;;5051586;28;20378;-74
2023/04/24 06:27:14;;;;;;;3.22;1.95;;;;;;;;;;5051908;28;20024;-72
2023/04/24 06:29:40;;;;;;;3.83;2.13;;;;;;;;;;5052214;28;20021;-74
2023/04/24 06:32:06;;;;;;;3.28;2.03;;;;;;;;;;5049036;28;20037;-72
2023/04/24 06:34:33;;;;;;;7.50;2.10;;;;;;;;;;5066221;28;20099;-71
2023/04/24 06:36:59;;;;;;;6.60;2.40;;;;;;;;;;5067045;28;20029;-73
2023/04/24 06:39:25;;;;;;;3.38;1.90;;;;;;;;;;5051346;28;20063;-72
2023/04/24 06:41:51;;;;;;;4.50;1.88;;;;;;;;;;5051262;28;20048;-72
2023/04/24 06:44:17;;;;;;;3.92;1.95;;;;;;;;;;5051533;28;20489;-72
2023/04/24 06:46:43;;;;;;;2.88;1.88;;;;;;;;;;5051086;28;20036;-72
2023/04/24 06:49:10;;;;;;;4.15;2.13;;;;;;;;;;5051263;28;20087;-72
2023/04/24 06:51:36;;;;;;;4.55;2.33;;;;;;;;;;5051425;28;20565;-72
2023/04/24 06:54:02;;;;;;;3.83;2.25;;;;;;;;;;5051123;28;20431;-72
2023/04/24 06:56:29;;;;;;;3.88;2.20;;;;;;;;;;5051585;28;20029;-71
2023/04/24 06:58:55;;;;;;;3.28;1.95;;;;;;;;;;5051263;28;20437;-72
2023/04/24 07:01:21;;;;;;;3.45;2.42;;;;;;;;;;5051308;28;20028;-71
2023/04/24 07:03:47;;;;;;;4.88;2.00;;;;;;;;;;5051314;28;20029;-71
2023/04/24 07:06:13;;;;;;;5.10;2.35;;;;;;;;;;5052534;28;20029;-71
2023/04/24 07:08:39;;;;;;;3.90;2.30;;;;;;;;;;5051699;28;20033;-73
2023/04/24 07:11:05;;;;;;;4.88;2.60;;;;;;;;;;5051380;28;20107;-72
2023/04/24 07:13:31;;;;;;;7.18;2.35;;;;;;;;;;5051344;28;20037;-74
2023/04/24 07:15:57;;;;;;;7.65;2.85;;;;;;;;;;5051135;28;20032;-73
2023/04/24 07:18:23;;;;;;;3.55;2.20;;;;;;;;;;5051306;28;20540;-72
2023/04/24 07:20:52;;;;;;;6.85;2.70;;;;;;;;;;5051249;28;20029;-71
2023/04/24 07:23:19;;;;;;;7.60;3.13;;;;;;;;;;5050951;28;20078;-72
2023/04/24 07:25:45;;;;;;;7.38;3.03;;;;;;;;;;5051133;28;20033;-73
2023/04/24 07:28:11;;;;;;;5.65;2.90;;;;;;;;;;5051214;28;20050;-72
2023/04/24 07:30:37;;;;;;;6.18;2.88;;;;;;;;;;5050776;28;20104;-71
2023/04/24 07:33:03;;;;;;;9.35;3.15;;;;;;;;;;5054270;28;20124;-72
2023/04/24 07:35:29;;;;;;;8.15;3.72;;;;;;;;;;5054753;28;20025;-71
2023/04/24 07:37:55;;;;;;;7.90;4.00;;;;;;;;;;5054741;28;20032;-72
2023/04/24 07:40:21;;;;;;;6.60;3.67;;;;;;;;;;5053497;28;20024;-72
2023/04/24 07:42:48;;;;;;;6.10;3.40;;;;;;;;;;5053955;28;20036;-71
2023/04/24 07:45:14;;;;;;;9.65;3.70;;;;;;;;;;5054360;28;20036;-72
2023/04/24 07:47:43;;;;;;;9.50;3.58;;;;;;;;;;5054474;28;20109;-73
2023/04/24 07:50:09;;;;;;;7.35;3.90;;;;;;;;;;5054321;28;20123;-71
2023/04/24 07:52:36;;;;;;;5.88;3.55;;;;;;;;;;5054580;28;20040;-71
2023/04/24 07:55:02;;;;;;;6.90;4.38;;;;;;;;;;5054506;28;20029;-72
2023/04/24 07:57:28;;;;;;;8.48;4.32;;;;;;;;;;5054482;28;20021;-72
2023/04/24 07:59:55;;;;;;;8.98;4.55;;;;;;;;;;5054415;28;20024;-78
2023/04/24 08:02:26;;;;;;;10.68;4.78;;;;;;;;;;5051971;28;20021;-73
2023/04/24 08:04:52;;;;;;;6.40;3.90;;;;;;;;;;5034371;28;20415;-72
2023/04/24 08:07:18;;;;;;;7.20;4.50;;;;;;;;;;5051404;28;20025;-71
2023/04/24 08:09:44;;;;;;;11.52;4.95;;;;;;;;;;5054229;28;20029;-73
2023/04/24 08:12:10;;;;;;;5.25;4.25;;;;;;;;;;5053480;28;20024;-73
2023/04/24 08:14:36;;;;;;;14.68;4.35;;;;;;;;;;5056255;28;20029;-73
2023/04/24 08:17:03;;;;;;;8.20;4.97;;;;;;;;;;5056789;28;20075;-73
2023/04/24 08:19:29;;;;;;;10.10;4.80;;;;;;;;;;5054182;28;20025;-74
2023/04/24 08:21:55;;;;;;;7.47;4.07;;;;;;;;;;5053795;28;20472;-74
2023/04/24 08:24:21;;;;;;;7.53;4.47;;;;;;;;;;5054205;28;20144;-75
2023/04/24 08:26:50;;;;;;;6.97;3.40;;;;;;;;;;5054090;28;20033;-74
2023/04/24 08:29:16;;;;;;;8.35;3.00;;;;;;;;;;5054302;28;20082;-75
2023/04/24 08:31:42;;;;;;;5.30;2.80;;;;;;;;;;5054691;28;20430;-76
2023/04/24 08:34:08;;;;;;;4.88;2.13;;;;;;;;;;5054705;28;20033;-75
2023/04/24 08:36:34;;;;;;;6.93;3.60;;;;;;;;;;5054299;28;20077;-75
2023/04/24 08:39:00;;;;;;;3.60;3.05;;;;;;;;;;5053618;28;20076;-73
2023/04/24 08:41:27;;;;;;;9.23;3.80;;;;;;;;;;5053590;28;20025;-73
2023/04/24 08:43:54;;;;;;;6.68;3.92;;;;;;;;;;5052762;28;20025;-71
2023/04/24 08:46:21;;;;;;;4.90;4.15;;;;;;;;;;5053307;28;20059;-72
2023/04/24 08:48:47;;;;;;;6.20;4.40;;;;;;;;;;5053364;28;20029;-73
2023/04/24 08:51:13;;;;;;;7.95;4.80;;;;;;;;;;5053277;28;20036;-72
2023/04/24 08:53:39;;;;;;;8.13;5.15;;;;;;;;;;5052915;28;20031;-75
2023/04/24 08:56:06;;;;;;;9.05;5.70;;;;;;;;;;5052964;28;20483;-73
2023/04/24 08:58:32;;;;;;;11.73;5.45;;;;;;;;;;5053467;28;20024;-75
2023/04/24 09:00:58;;;;;;;9.75;5.50;;;;;;;;;;5053584;28;20111;-73
2023/04/24 09:03:25;;;;;;;10.85;5.57;;;;;;;;;;5053334;28;20049;-74
2023/04/24 09:05:51;;;;;;;9.85;5.90;;;;;;;;;;5053839;28;20025;-73
2023/04/24 09:08:18;;;;;;;11.32;6.68;;;;;;;;;;5053602;28;20029;-74
2023/04/24 09:10:44;;;;;;;11.05;6.03;;;;;;;;;;5053280;28;20025;-76
2023/04/24 09:13:11;;;;;;;10.15;6.53;;;;;;;;;;5052799;28;20498;-74
2023/04/24 09:15:38;;;;;;;10.48;6.80;;;;;;;;;;5052965;28;20032;-72
2023/04/24 09:18:05;;;;;;;10.80;6.82;;;;;;;;;;5053014;28;20586;-72
2023/04/24 09:20:31;;;;;;;10.70;6.43;;;;;;;;;;5053790;28;20021;-75
2023/04/24 09:22:58;;;;;;;10.80;6.63;;;;;;;;;;5052887;28;20024;-76
2023/04/24 09:25:31;;;;;;;9.45;6.40;;;;;;;;;;5052752;28;20032;-76
2023/04/24 09:28:01;;;;;;;11.90;7.18;;;;;;;;;;5053890;28;20510;-79
2023/04/24 09:30:27;;;;;;;9.82;6.30;;;;;;;;;;5053412;28;20097;-75
2023/04/24 09:33:11;;;;;;;11.73;6.93;;;;;;;;;;5053381;28;20060;-75
2023/04/24 09:35:40;;;;;;;16.25;6.80;;;;;;;;;;5053030;28;20033;-76
2023/04/24 09:38:06;;;;;;;11.70;7.10;;;;;;;;;;5052972;28;20470;-72
2023/04/24 09:40:34;;;;;;;10.52;6.65;;;;;;;;;;5052520;28;20048;-72
2023/04/24 09:43:03;;;;;;;16.10;6.88;;;;;;;;;;5052124;28;20021;-72
2023/04/24 09:45:35;;;;;;;10.50;7.10;;;;;;;;;;5052381;28;20091;-72
2023/04/24 09:48:02;;;;;;;9.23;6.15;;;;;;;;;;5052136;28;20047;-72
2023/04/24 09:50:27;;;;;;;9.30;5.95;;;;;;;;;;5052373;28;20040;-72
2023/04/24 09:52:58;;;;;;;8.38;6.32;;;;;;;;;;5052173;28;20025;-72
2023/04/24 09:55:25;;;;;;;11.52;6.68;;;;;;;;;;5052271;28;20013;-73
2023/04/24 09:58:01;;;;;;;12.20;6.65;;;;;;;;;;5052185;28;20494;-72
2023/04/24 10:00:27;;;;;;;13.02;6.70;;;;;;;;;;5052116;28;20082;-72
2023/04/24 10:03:01;;;;;;;10.52;6.95;;;;;;;;;;5051960;28;20092;-72
2023/04/24 10:05:31;;;;;;;17.53;8.60;;;;;;;;;;5052382;28;20059;-73
2023/04/24 10:07:58;;;;;;;9.75;6.82;;;;;;;;;;5052234;28;20271;-73
2023/04/24 10:10:24;;;;;;;12.68;7.78;;;;;;;;;;5052165;28;20025;-73
2023/04/24 10:12:51;;;;;;;14.65;8.68;;;;;;;;;;5051805;28;20033;-73
2023/04/24 10:15:21;;;;;;;18.05;7.88;;;;;;;;;;5052514;28;20395;-75
2023/04/24 10:17:51;;;;;;;15.82;8.70;;;;;;;;;;5052217;28;20029;-72
2023/04/24 10:20:18;;;;;;;16.30;9.23;;;;;;;;;;5051758;28;20205;-73
2023/04/24 10:22:45;;;;;;;16.40;8.32;;;;;;;;;;5051559;28;20415;-73
2023/04/24 10:25:12;;;;;;;14.02;9.32;;;;;;;;;;5051582;28;20505;-73
2023/04/24 10:27:38;;;;;;;16.85;9.85;;;;;;;;;;5051564;28;20040;-75
2023/04/24 10:30:06;;;;;;;21.08;12.77;;;;;;;;;;5051660;28;20025;-73
2023/04/24 10:32:32;;;;;;;15.98;10.50;;;;;;;;;;5051576;28;20044;-74
2023/04/24 10:34:57;;;;;;;15.82;9.70;;;;;;;;;;5053490;28;20060;-71
2023/04/24 10:37:24;;;;;;;17.13;11.23;;;;;;;;;;5055536;28;20029;-72
2023/04/24 10:39:54;;;;;;;20.08;11.70;;;;;;;;;;5053992;28;20490;-72
2023/04/24 10:42:20;;;;;;;22.75;11.65;;;;;;;;;;5051812;28;20122;-73
2023/04/24 10:44:48;;;;;;;18.45;11.85;;;;;;;;;;5051680;28;20053;-72
2023/04/24 10:47:15;;;;;;;18.45;11.82;;;;;;;;;;5051516;28;20514;-73
2023/04/24 10:49:41;;;;;;;19.35;12.95;;;;;;;;;;5051304;28;20029;-73
2023/04/24 10:52:09;;;;;;;21.23;12.57;;;;;;;;;;5051292;28;20017;-73
2023/04/24 10:54:36;;;;;;;19.55;12.65;;;;;;;;;;5051557;28;20071;-72
2023/04/24 10:57:20;;;;;;;17.67;11.98;;;;;;;;;;5051463;28;20025;-73
2023/04/24 10:59:47;;;;;;;22.13;11.93;;;;;;;;;;5051505;28;20490;-73
2023/04/24 11:02:15;;;;;;;22.65;12.50;;;;;;;;;;5051032;28;20056;-72
2023/04/24 11:04:46;;;;;;;24.02;13.02;;;;;;;;;;5051408;28;20433;-72
2023/04/24 11:07:12;;;;;;;19.35;12.32;;;;;;;;;;5053744;28;20025;-73
2023/04/24 11:09:40;;;;;;;22.38;12.70;;;;;;;;;;5055048;28;20066;-72
2023/04/24 11:12:08;;;;;;;21.65;13.07;;;;;;;;;;5055060;28;20021;-72
2023/04/24 11:14:53;;;;;;;25.25;13.10;;;;;;;;;;5055082;28;20111;-72
2023/04/24 11:17:33;;;;;;;21.15;13.07;;;;;;;;;;5055001;28;20041;-71
2023/04/24 11:20:04;;;;;;;24.30;12.60;;;;;;;;;;5055525;28;20434;-72
2023/04/24 11:22:33;;;;;;;20.58;13.13;;;;;;;;;;5055468;28;20029;-71
2023/04/24 11:25:03;;;;;;;22.73;12.57;;;;;;;;;;5055005;28;20390;-73
2023/04/24 11:27:32;;;;;;;18.70;11.93;;;;;;;;;;5054899;28;20546;-73
2023/04/24 11:30:01;;;;;;;24.05;13.07;;;;;;;;;;5054612;28;20033;-72
2023/04/24 11:32:27;;;;;;;24.77;13.52;;;;;;;;;;5054748;28;20025;-72
2023/04/24 11:34:57;;;;;;;19.98;12.80;;;;;;;;;;5055036;28;20025;-72
2023/04/24 11:37:25;;;;;;;25.67;13.45;;;;;;;;;;5055163;28;20024;-72
2023/04/24 11:39:51;;;;;;;26.65;12.85;;;;;;;;;;5055148;28;20063;-71
2023/04/24 11:42:18;;;;;;;19.73;13.07;;;;;;;;;;5054736;28;20102;-71
2023/04/24 11:44:47;;;;;;;20.38;12.73;;;;;;;;;;5052203;28;20017;-72
2023/04/24 11:47:13;;;;;;;22.10;12.45;;;;;;;;;;5067237;28;20028;-77
2023/04/24 11:49:39;;;;;;;19.25;12.70;;;;;;;;;;5060675;28;20021;-73
2023/04/24 11:52:06;;;;;;;19.55;11.82;;;;;;;;;;5054236;28;20025;-71
2023/04/24 11:54:32;;;;;;;18.42;11.85;;;;;;;;;;5054473;28;20025;-71
2023/04/24 11:56:58;;;;;;;15.73;11.57;;;;;;;;;;5054244;28;20064;-73
2023/04/24 11:59:24;;;;;;;19.23;11.73;;;;;;;;;;5053872;28;20029;-73
2023/04/24 12:01:50;;;;;;;18.92;11.35;;;;;;;;;;5053784;28;20501;-73
2023/04/24 12:04:17;;;;;;;18.92;11.65;;;;;;;;;;5054312;28;20105;-74
2023/04/24 12:07:02;;;;;;;21.45;11.88;;;;;;;;;;5053655;28;20078;-73
2023/04/24 12:09:28;;;;;;;16.35;10.02;;;;;;;;;;5053918;28;20442;-76
2023/04/24 12:11:56;;;;;;;18.52;10.00;;;;;;;;;;5053941;28;20509;-72
2023/04/24 12:14:22;;;;;;;16.40;8.88;;;;;;;;;;5054537;28;20025;-73
2023/04/24 12:16:49;;;;;;;14.18;8.50;;;;;;;;;;5054394;28;20407;-76
2023/04/24 12:19:20;;;;;;;20.92;8.85;;;;;;;;;;5053509;28;20055;-73
2023/04/24 12:21:58;;;;;;;13.98;8.00;;;;;;;;;;5054085;28;20087;-74
2023/04/24 12:24:24;;;;;;;13.65;8.73;;;;;;;;;;5053855;28;20024;-75
2023/04/24 12:26:50;;;;;;;13.45;8.00;;;;;;;;;;5054692;28;20583;-76
2023/04/24 12:29:22;;;;;;;13.35;9.05;;;;;;;;;;5054819;28;20025;-76
2023/04/24 12:31:48;;;;;;;16.70;9.60;;;;;;;;;;5054397;28;20025;-74
2023/04/24 12:34:18;;;;;;;23.27;8.57;;;;;;;;;;5055564;28;20021;-74
2023/04/24 12:36:44;;;;;;;13.55;8.80;;;;;;;;;;5055903;28;20487;-75
2023/04/24 12:39:23;;;;;;;16.33;8.50;;;;;;;;;;5054366;28;20025;-75
2023/04/24 12:41:59;;;;;;;14.23;8.30;;;;;;;;;;5054108;28;20017;-74
2023/04/24 12:44:32;;;;;;;13.82;8.93;;;;;;;;;;5054929;28;20048;-75
2023/04/24 12:46:58;;;;;;;11.60;8.13;;;;;;;;;;5054687;28;20036;-77
2023/04/24 12:49:24;;;;;;;13.05;8.75;;;;;;;;;;5054384;28;20071;-74
2023/04/24 12:51:50;;;;;;;14.10;9.10;;;;;;;;;;5053533;28;20025;-76
2023/04/24 12:54:16;;;;;;;17.42;8.98;;;;;;;;;;5054346;28;20036;-75
2023/04/24 12:56:42;;;;;;;13.10;9.38;;;;;;;;;;5054522;28;20033;-76
2023/04/24 12:59:08;;;;;;;15.45;9.27;;;;;;;;;;5054302;28;20066;-75
2023/04/24 13:01:34;;;;;;;13.88;8.82;;;;;;;;;;5055352;28;20036;-79
2023/04/24 13:04:00;;;;;;;12.32;8.27;;;;;;;;;;5053168;28;20028;-72
2023/04/24 13:06:26;;;;;;;12.95;8.18;;;;;;;;;;5053808;28;20056;-72
2023/04/24 13:08:52;;;;;;;12.18;7.97;;;;;;;;;;5052809;28;20131;-73
2023/04/24 13:11:18;;;;;;;13.85;7.97;;;;;;;;;;5053273;28;20032;-72
2023/04/24 13:13:44;;;;;;;20.60;7.45;;;;;;;;;;5049952;28;20035;-73
2023/04/24 13:16:10;;;;;;;10.77;7.20;;;;;;;;;;5052560;28;20061;-72
2023/04/24 13:18:36;;;;;;;11.15;7.50;;;;;;;;;;5052501;28;20530;-72
2023/04/24 13:21:02;;;;;;;9.65;6.68;;;;;;;;;;5055661;28;20029;-73
2023/04/24 13:23:29;;;;;;;9.25;6.68;;;;;;;;;;5052172;28;20429;-73
2023/04/24 13:25:58;;;;;;;13.32;7.78;;;;;;;;;;5053209;28;20033;-72
2023/04/24 13:28:24;;;;;;;11.73;7.00;;;;;;;;;;5052912;28;20025;-72
2023/04/24 13:30:51;;;;;;;11.18;7.30;;;;;;;;;;5052194;28;20032;-71
2023/04/24 13:33:17;;;;;;;9.98;6.93;;;;;;;;;;5052239;28;20041;-72
2023/04/24 13:35:43;;;;;;;11.07;7.55;;;;;;;;;;5052728;28;20032;-72
2023/04/24 13:38:09;;;;;;;13.45;7.18;;;;;;;;;;5053025;28;20444;-72
2023/04/24 13:40:35;;;;;;;11.95;8.63;;;;;;;;;;5055811;28;20025;-72
2023/04/24 13:43:01;;;;;;;16.48;10.15;;;;;;;;;;5055206;28;20018;-71
2023/04/24 13:45:27;;;;;;;12.68;8.23;;;;;;;;;;5055148;28;20020;-72
2023/04/24 13:47:53;;;;;;;12.80;8.40;;;;;;;;;;5055288;28;20025;-72
2023/04/24 13:50:20;;;;;;;11.50;7.60;;;;;;;;;;5052916;28;20017;-73
2023/04/24 13:52:46;;;;;;;10.35;7.15;;;;;;;;;;5052033;28;20099;-71
2023/04/24 13:55:12;;;;;;;10.38;7.60;;;;;;;;;;5051988;28;20032;-72
2023/04/24 13:57:38;;;;;;;16.00;8.20;;;;;;;;;;5051966;28;20055;-71
2023/04/24 14:00:06;;;;;;;12.75;8.40;;;;;;;;;;5052330;28;20066;-70
2023/04/24 14:02:32;;;;;;;11.77;8.15;;;;;;;;;;5051534;28;20082;-71
2023/04/24 14:04:57;;;;;;;16.85;7.75;;;;;;;;;;5052015;28;20028;-72
2023/04/24 14:07:23;;;;;;;12.65;8.00;;;;;;;;;;5051716;28;20025;-73
2023/04/24 14:09:50;;;;;;;11.27;7.82;;;;;;;;;;5051495;28;20551;-73
2023/04/24 14:12:19;;;;;;;12.65;7.78;;;;;;;;;;5051915;28;20407;-72
2023/04/24 14:14:45;;;;;;;24.13;15.90;;;;;;;;;;5051600;28;20032;-72
2023/04/24 14:17:11;;;;;;;22.73;14.13;;;;;;;;;;5051850;28;20072;-72
2023/04/24 14:19:37;;;;;;;21.27;14.43;;;;;;;;;;5051598;28;20021;-72
2023/04/24 14:22:03;;;;;;;12.48;9.07;;;;;;;;;;5051478;28;20023;-72
2023/04/24 14:24:29;;;;;;;12.25;9.77;;;;;;;;;;5051625;28;20025;-72
2023/04/24 14:26:56;;;;;;;20.90;10.02;;;;;;;;;;5051767;28;20025;-72
2023/04/24 14:29:22;;;;;;;14.77;10.55;;;;;;;;;;5051330;28;20032;-73
2023/04/24 14:31:48;;;;;;;13.10;10.15;;;;;;;;;;5051832;28;20025;-72
2023/04/24 14:34:15;;;;;;;14.25;10.27;;;;;;;;;;5051863;28;20410;-73